sensor_id;sensor_type;location;lat;lon;timestamp;temperature;humidity
42683;DHT22;28293;50.930;3.464;2024-01-27T00:01:34;2.90;91.50
42683;DHT22;28293;50.930;3.464;2024-01-27T00:04:00;2.80;91.60
42683;DHT22;28293;50.930;3.464;2024-01-27T00:06:26;2.90;91.70
42683;DHT22;28293;50.930;3.464;2024-01-27T00:08:52;2.80;91.80
42683;DHT22;28293;50.930;3.464;2024-01-27T00:11:17;2.80;91.90
42683;DHT22;28293;50.930;3.464;2024-01-27T00:13:44;2.80;92.00
42683;DHT22;28293;50.930;3.464;2024-01-27T00:16:10;2.80;92.10
42683;DHT22;28293;50.930;3.464;2024-01-27T00:18:36;2.80;92.10
42683;DHT22;28293;50.930;3.464;2024-01-27T00:21:03;2.80;92.00
42683;DHT22;28293;50.930;3.464;2024-01-27T00:23:29;2.80;92.20
42683;DHT22;28293;50.930;3.464;2024-01-27T00:25:54;2.70;92.10
42683;DHT22;28293;50.930;3.464;2024-01-27T00:28:20;2.80;92.30
42683;DHT22;28293;50.930;3.464;2024-01-27T00:30:46;2.70;92.40
42683;DHT22;28293;50.930;3.464;2024-01-27T00:33:11;2.70;92.40
42683;DHT22;28293;50.930;3.464;2024-01-27T00:35:37;2.70;92.50
42683;DHT22;28293;50.930;3.464;2024-01-27T00:38:03;2.70;92.60
42683;DHT22;28293;50.930;3.464;2024-01-27T00:40:28;2.70;92.60
42683;DHT22;28293;50.930;3.464;2024-01-27T00:42:54;2.60;92.70
42683;DHT22;28293;50.930;3.464;2024-01-27T00:45:20;2.60;92.60
42683;DHT22;28293;50.930;3.464;2024-01-27T00:47:51;2.60;92.70
42683;DHT22;28293;50.930;3.464;2024-01-27T00:50:17;2.50;92.70
42683;DHT22;28293;50.930;3.464;2024-01-27T00:52:42;2.50;92.80
42683;DHT22;28293;50.930;3.464;2024-01-27T00:55:08;2.50;92.90
42683;DHT22;28293;50.930;3.464;2024-01-27T00:57:36;2.60;92.90
42683;DHT22;28293;50.930;3.464;2024-01-27T01:00:07;2.60;93.00
42683;DHT22;28293;50.930;3.464;2024-01-27T01:02:33;2.50;93.00
42683;DHT22;28293;50.930;3.464;2024-01-27T01:04:59;2.40;93.00
42683;DHT22;28293;50.930;3.464;2024-01-27T01:07:25;2.50;93.00
42683;DHT22;28293;50.930;3.464;2024-01-27T01:09:50;2.50;93.00
42683;DHT22;28293;50.930;3.464;2024-01-27T01:12:16;2.40;93.00
42683;DHT22;28293;50.930;3.464;2024-01-27T01:14:43;2.40;93.00
42683;DHT22;28293;50.930;3.464;2024-01-27T01:17:09;2.40;93.20
42683;DHT22;28293;50.930;3.464;2024-01-27T01:19:36;2.50;93.20
42683;DHT22;28293;50.930;3.464;2024-01-27T01:22:02;2.50;93.20
42683;DHT22;28293;50.930;3.464;2024-01-27T01:24:29;2.50;93.30
42683;DHT22;28293;50.930;3.464;2024-01-27T01:26:54;2.40;93.20
42683;DHT22;28293;50.930;3.464;2024-01-27T01:29:20;2.40;93.20
42683;DHT22;28293;50.930;3.464;2024-01-27T01:31:45;2.40;93.20
42683;DHT22;28293;50.930;3.464;2024-01-27T01:34:11;2.30;93.10
42683;DHT22;28293;50.930;3.464;2024-01-27T01:36:37;2.30;93.20
42683;DHT22;28293;50.930;3.464;2024-01-27T01:39:03;2.30;93.30
42683;DHT22;28293;50.930;3.464;2024-01-27T01:41:29;2.20;93.40
42683;DHT22;28293;50.930;3.464;2024-01-27T01:43:54;2.30;93.40
42683;DHT22;28293;50.930;3.464;2024-01-27T01:46:22;2.20;93.50
42683;DHT22;28293;50.930;3.464;2024-01-27T01:48:49;2.20;93.50
42683;DHT22;28293;50.930;3.464;2024-01-27T01:51:16;2.20;93.50
42683;DHT22;28293;50.930;3.464;2024-01-27T01:53:43;2.10;93.60
42683;DHT22;28293;50.930;3.464;2024-01-27T01:56:12;2.10;93.60
42683;DHT22;28293;50.930;3.464;2024-01-27T01:58:38;2.10;93.60
42683;DHT22;28293;50.930;3.464;2024-01-27T02:01:04;2.10;93.80
42683;DHT22;28293;50.930;3.464;2024-01-27T02:03:30;2.10;93.80
42683;DHT22;28293;50.930;3.464;2024-01-27T02:05:56;2.10;93.80
42683;DHT22;28293;50.930;3.464;2024-01-27T02:08:21;2.10;93.80
42683;DHT22;28293;50.930;3.464;2024-01-27T02:10:47;2.10;93.80
42683;DHT22;28293;50.930;3.464;2024-01-27T02:13:22;2.10;93.80
42683;DHT22;28293;50.930;3.464;2024-01-27T02:15:49;2.10;93.80
42683;DHT22;28293;50.930;3.464;2024-01-27T02:18:15;2.10;93.80
42683;DHT22;28293;50.930;3.464;2024-01-27T02:20:41;2.10;93.80
42683;DHT22;28293;50.930;3.464;2024-01-27T02:23:07;2.10;93.80
42683;DHT22;28293;50.930;3.464;2024-01-27T02:25:33;2.10;93.80
42683;DHT22;28293;50.930;3.464;2024-01-27T02:27:59;2.10;93.90
42683;DHT22;28293;50.930;3.464;2024-01-27T02:30:25;2.10;93.90
42683;DHT22;28293;50.930;3.464;2024-01-27T02:32:51;2.10;94.00
42683;DHT22;28293;50.930;3.464;2024-01-27T02:35:17;2.10;94.00
42683;DHT22;28293;50.930;3.464;2024-01-27T02:37:42;2.10;94.10
42683;DHT22;28293;50.930;3.464;2024-01-27T02:40:09;2.10;94.10
42683;DHT22;28293;50.930;3.464;2024-01-27T02:42:36;2.10;94.20
42683;DHT22;28293;50.930;3.464;2024-01-27T02:45:03;2.00;94.10
42683;DHT22;28293;50.930;3.464;2024-01-27T02:47:29;2.00;94.20
42683;DHT22;28293;50.930;3.464;2024-01-27T02:49:54;2.00;94.30
42683;DHT22;28293;50.930;3.464;2024-01-27T02:52:20;2.00;94.40
42683;DHT22;28293;50.930;3.464;2024-01-27T02:54:46;2.10;94.40
42683;DHT22;28293;50.930;3.464;2024-01-27T02:57:12;2.10;94.50
42683;DHT22;28293;50.930;3.464;2024-01-27T02:59:38;2.10;94.40
42683;DHT22;28293;50.930;3.464;2024-01-27T03:02:05;2.00;94.40
42683;DHT22;28293;50.930;3.464;2024-01-27T03:04:31;2.00;94.40
42683;DHT22;28293;50.930;3.464;2024-01-27T03:06:56;2.00;94.40
42683;DHT22;28293;50.930;3.464;2024-01-27T03:09:22;2.00;94.50
42683;DHT22;28293;50.930;3.464;2024-01-27T03:11:48;2.00;94.50
42683;DHT22;28293;50.930;3.464;2024-01-27T03:14:13;2.10;94.50
42683;DHT22;28293;50.930;3.464;2024-01-27T03:16:39;2.00;94.40
42683;DHT22;28293;50.930;3.464;2024-01-27T03:19:05;2.00;94.50
42683;DHT22;28293;50.930;3.464;2024-01-27T03:21:32;2.00;94.50
42683;DHT22;28293;50.930;3.464;2024-01-27T03:23:57;2.00;94.50
42683;DHT22;28293;50.930;3.464;2024-01-27T03:26:23;2.00;94.60
42683;DHT22;28293;50.930;3.464;2024-01-27T03:28:49;2.00;94.60
42683;DHT22;28293;50.930;3.464;2024-01-27T03:31:14;1.90;94.50
42683;DHT22;28293;50.930;3.464;2024-01-27T03:33:40;1.90;94.60
42683;DHT22;28293;50.930;3.464;2024-01-27T03:36:10;1.80;94.60
42683;DHT22;28293;50.930;3.464;2024-01-27T03:38:37;1.80;94.70
42683;DHT22;28293;50.930;3.464;2024-01-27T03:41:03;1.80;94.70
42683;DHT22;28293;50.930;3.464;2024-01-27T03:43:28;1.80;94.70
42683;DHT22;28293;50.930;3.464;2024-01-27T03:45:56;1.80;94.80
42683;DHT22;28293;50.930;3.464;2024-01-27T03:48:21;1.80;94.70
42683;DHT22;28293;50.930;3.464;2024-01-27T03:50:47;1.80;94.80
42683;DHT22;28293;50.930;3.464;2024-01-27T03:53:12;1.80;94.80
42683;DHT22;28293;50.930;3.464;2024-01-27T03:55:38;1.70;94.80
42683;DHT22;28293;50.930;3.464;2024-01-27T03:58:04;1.70;94.80
42683;DHT22;28293;50.930;3.464;2024-01-27T04:00:29;1.70;94.80
42683;DHT22;28293;50.930;3.464;2024-01-27T04:03:01;1.70;94.80
42683;DHT22;28293;50.930;3.464;2024-01-27T04:05:29;1.70;94.90
42683;DHT22;28293;50.930;3.464;2024-01-27T04:07:55;1.70;94.90
42683;DHT22;28293;50.930;3.464;2024-01-27T04:10:22;1.70;95.00
42683;DHT22;28293;50.930;3.464;2024-01-27T04:12:48;1.70;95.00
42683;DHT22;28293;50.930;3.464;2024-01-27T04:15:13;1.70;95.10
42683;DHT22;28293;50.930;3.464;2024-01-27T04:17:40;1.70;95.10
42683;DHT22;28293;50.930;3.464;2024-01-27T04:20:07;1.80;95.10
42683;DHT22;28293;50.930;3.464;2024-01-27T04:22:33;1.80;95.10
42683;DHT22;28293;50.930;3.464;2024-01-27T04:24:59;1.80;95.20
42683;DHT22;28293;50.930;3.464;2024-01-27T04:27:27;1.70;95.10
42683;DHT22;28293;50.930;3.464;2024-01-27T04:29:53;1.70;95.20
42683;DHT22;28293;50.930;3.464;2024-01-27T04:32:18;1.70;95.20
42683;DHT22;28293;50.930;3.464;2024-01-27T04:34:45;1.70;95.20
42683;DHT22;28293;50.930;3.464;2024-01-27T04:37:11;1.70;95.30
42683;DHT22;28293;50.930;3.464;2024-01-27T04:39:38;1.60;95.30
42683;DHT22;28293;50.930;3.464;2024-01-27T04:42:03;1.70;95.30
42683;DHT22;28293;50.930;3.464;2024-01-27T04:44:31;1.60;95.30
42683;DHT22;28293;50.930;3.464;2024-01-27T04:46:57;1.60;95.40
42683;DHT22;28293;50.930;3.464;2024-01-27T04:49:23;1.70;95.50
42683;DHT22;28293;50.930;3.464;2024-01-27T04:51:48;1.70;95.50
42683;DHT22;28293;50.930;3.464;2024-01-27T04:54:14;1.60;95.40
42683;DHT22;28293;50.930;3.464;2024-01-27T04:56:40;1.60;95.40
42683;DHT22;28293;50.930;3.464;2024-01-27T04:59:05;1.60;95.50
42683;DHT22;28293;50.930;3.464;2024-01-27T05:01:32;1.60;95.50
42683;DHT22;28293;50.930;3.464;2024-01-27T05:03:57;1.60;95.50
42683;DHT22;28293;50.930;3.464;2024-01-27T05:06:23;1.70;95.50
42683;DHT22;28293;50.930;3.464;2024-01-27T05:08:48;1.60;95.50
42683;DHT22;28293;50.930;3.464;2024-01-27T05:11:16;1.70;95.60
42683;DHT22;28293;50.930;3.464;2024-01-27T05:13:43;1.80;95.60
42683;DHT22;28293;50.930;3.464;2024-01-27T05:16:09;1.70;95.50
42683;DHT22;28293;50.930;3.464;2024-01-27T05:18:34;1.70;95.60
42683;DHT22;28293;50.930;3.464;2024-01-27T05:21:00;1.70;95.50
42683;DHT22;28293;50.930;3.464;2024-01-27T05:23:26;1.70;95.60
42683;DHT22;28293;50.930;3.464;2024-01-27T05:25:52;1.70;95.60
42683;DHT22;28293;50.930;3.464;2024-01-27T05:28:18;1.70;95.70
42683;DHT22;28293;50.930;3.464;2024-01-27T05:30:44;1.70;95.80
42683;DHT22;28293;50.930;3.464;2024-01-27T05:33:10;1.80;95.90
42683;DHT22;28293;50.930;3.464;2024-01-27T05:35:35;1.70;95.90
42683;DHT22;28293;50.930;3.464;2024-01-27T05:38:01;1.70;95.90
42683;DHT22;28293;50.930;3.464;2024-01-27T05:40:27;1.70;95.90
42683;DHT22;28293;50.930;3.464;2024-01-27T05:42:53;1.70;95.90
42683;DHT22;28293;50.930;3.464;2024-01-27T05:45:20;1.80;96.10
42683;DHT22;28293;50.930;3.464;2024-01-27T05:47:45;1.80;96.10
42683;DHT22;28293;50.930;3.464;2024-01-27T05:50:11;1.70;96.00
42683;DHT22;28293;50.930;3.464;2024-01-27T05:52:40;1.70;96.00
42683;DHT22;28293;50.930;3.464;2024-01-27T05:55:06;1.70;96.00
42683;DHT22;28293;50.930;3.464;2024-01-27T05:57:32;1.60;96.00
42683;DHT22;28293;50.930;3.464;2024-01-27T05:59:58;1.60;96.00
42683;DHT22;28293;50.930;3.464;2024-01-27T06:02:23;1.60;96.00
42683;DHT22;28293;50.930;3.464;2024-01-27T06:04:49;1.60;96.00
42683;DHT22;28293;50.930;3.464;2024-01-27T06:07:15;1.60;96.10
42683;DHT22;28293;50.930;3.464;2024-01-27T06:09:40;1.60;96.10
42683;DHT22;28293;50.930;3.464;2024-01-27T06:12:06;1.60;96.20
42683;DHT22;28293;50.930;3.464;2024-01-27T06:14:32;1.60;96.20
42683;DHT22;28293;50.930;3.464;2024-01-27T06:16:57;1.60;96.20
42683;DHT22;28293;50.930;3.464;2024-01-27T06:19:24;1.60;96.20
42683;DHT22;28293;50.930;3.464;2024-01-27T06:21:49;1.60;96.20
42683;DHT22;28293;50.930;3.464;2024-01-27T06:24:15;1.50;96.30
42683;DHT22;28293;50.930;3.464;2024-01-27T06:26:40;1.50;96.20
42683;DHT22;28293;50.930;3.464;2024-01-27T06:29:06;1.50;96.30
42683;DHT22;28293;50.930;3.464;2024-01-27T06:31:32;1.50;96.40
42683;DHT22;28293;50.930;3.464;2024-01-27T06:33:57;1.50;96.50
42683;DHT22;28293;50.930;3.464;2024-01-27T06:36:23;1.50;96.50
42683;DHT22;28293;50.930;3.464;2024-01-27T06:38:51;1.50;96.50
42683;DHT22;28293;50.930;3.464;2024-01-27T06:41:17;1.50;96.50
42683;DHT22;28293;50.930;3.464;2024-01-27T06:43:42;1.50;96.60
42683;DHT22;28293;50.930;3.464;2024-01-27T06:46:09;1.50;96.70
42683;DHT22;28293;50.930;3.464;2024-01-27T06:48:35;1.50;96.70
42683;DHT22;28293;50.930;3.464;2024-01-27T06:51:01;1.50;96.70
42683;DHT22;28293;50.930;3.464;2024-01-27T06:53:26;1.50;96.70
42683;DHT22;28293;50.930;3.464;2024-01-27T06:55:52;1.50;96.70
42683;DHT22;28293;50.930;3.464;2024-01-27T06:58:18;1.50;96.70
42683;DHT22;28293;50.930;3.464;2024-01-27T07:00:43;1.60;96.70
42683;DHT22;28293;50.930;3.464;2024-01-27T07:03:10;1.50;96.70
42683;DHT22;28293;50.930;3.464;2024-01-27T07:05:36;1.50;96.70
42683;DHT22;28293;50.930;3.464;2024-01-27T07:08:07;1.40;96.70
42683;DHT22;28293;50.930;3.464;2024-01-27T07:10:33;1.40;96.70
42683;DHT22;28293;50.930;3.464;2024-01-27T07:12:58;1.50;96.80
42683;DHT22;28293;50.930;3.464;2024-01-27T07:15:24;1.50;96.80
42683;DHT22;28293;50.930;3.464;2024-01-27T07:17:50;1.40;96.80
42683;DHT22;28293;50.930;3.464;2024-01-27T07:20:15;1.40;96.80
42683;DHT22;28293;50.930;3.464;2024-01-27T07:22:41;1.40;96.80
42683;DHT22;28293;50.930;3.464;2024-01-27T07:25:07;1.40;96.80
42683;DHT22;28293;50.930;3.464;2024-01-27T07:27:35;1.40;96.90
42683;DHT22;28293;50.930;3.464;2024-01-27T07:30:02;1.50;96.90
42683;DHT22;28293;50.930;3.464;2024-01-27T07:32:27;1.40;96.80
42683;DHT22;28293;50.930;3.464;2024-01-27T07:34:53;1.40;96.90
42683;DHT22;28293;50.930;3.464;2024-01-27T07:37:19;1.50;97.00
42683;DHT22;28293;50.930;3.464;2024-01-27T07:39:46;1.50;97.00
42683;DHT22;28293;50.930;3.464;2024-01-27T07:42:14;1.50;97.10
42683;DHT22;28293;50.930;3.464;2024-01-27T07:44:39;1.60;97.10
42683;DHT22;28293;50.930;3.464;2024-01-27T07:47:05;1.60;97.10
42683;DHT22;28293;50.930;3.464;2024-01-27T07:49:30;1.60;97.10
42683;DHT22;28293;50.930;3.464;2024-01-27T07:51:56;1.60;97.10
42683;DHT22;28293;50.930;3.464;2024-01-27T07:54:22;1.60;97.00
42683;DHT22;28293;50.930;3.464;2024-01-27T07:56:48;1.60;97.00
42683;DHT22;28293;50.930;3.464;2024-01-27T07:59:14;1.60;97.10
42683;DHT22;28293;50.930;3.464;2024-01-27T08:01:40;1.70;97.10
42683;DHT22;28293;50.930;3.464;2024-01-27T08:04:06;1.70;97.10
42683;DHT22;28293;50.930;3.464;2024-01-27T08:06:31;1.80;97.10
42683;DHT22;28293;50.930;3.464;2024-01-27T08:08:57;1.80;97.10
42683;DHT22;28293;50.930;3.464;2024-01-27T08:11:23;1.80;97.10
42683;DHT22;28293;50.930;3.464;2024-01-27T08:13:50;1.90;97.10
42683;DHT22;28293;50.930;3.464;2024-01-27T08:16:16;2.00;97.10
42683;DHT22;28293;50.930;3.464;2024-01-27T08:18:42;2.00;97.10
42683;DHT22;28293;50.930;3.464;2024-01-27T08:21:10;2.10;97.10
42683;DHT22;28293;50.930;3.464;2024-01-27T08:23:37;2.10;97.00
42683;DHT22;28293;50.930;3.464;2024-01-27T08:26:03;2.20;97.00
42683;DHT22;28293;50.930;3.464;2024-01-27T08:28:28;2.20;96.90
42683;DHT22;28293;50.930;3.464;2024-01-27T08:30:54;2.20;96.90
42683;DHT22;28293;50.930;3.464;2024-01-27T08:33:20;2.20;96.90
42683;DHT22;28293;50.930;3.464;2024-01-27T08:35:48;2.30;96.90
42683;DHT22;28293;50.930;3.464;2024-01-27T08:38:14;2.40;96.90
42683;DHT22;28293;50.930;3.464;2024-01-27T08:40:40;2.40;96.90
42683;DHT22;28293;50.930;3.464;2024-01-27T08:43:05;2.40;96.90
42683;DHT22;28293;50.930;3.464;2024-01-27T08:45:32;2.60;97.00
42683;DHT22;28293;50.930;3.464;2024-01-27T08:47:58;2.60;97.00
42683;DHT22;28293;50.930;3.464;2024-01-27T08:50:24;2.70;97.00
42683;DHT22;28293;50.930;3.464;2024-01-27T08:52:50;2.70;97.00
42683;DHT22;28293;50.930;3.464;2024-01-27T08:55:15;2.90;97.00
42683;DHT22;28293;50.930;3.464;2024-01-27T08:57:44;3.00;97.00
42683;DHT22;28293;50.930;3.464;2024-01-27T09:00:11;3.10;97.00
42683;DHT22;28293;50.930;3.464;2024-01-27T09:02:38;3.20;96.90
42683;DHT22;28293;50.930;3.464;2024-01-27T09:05:04;3.40;96.80
42683;DHT22;28293;50.930;3.464;2024-01-27T09:07:30;3.50;96.60
42683;DHT22;28293;50.930;3.464;2024-01-27T09:09:56;3.60;96.50
42683;DHT22;28293;50.930;3.464;2024-01-27T09:12:22;3.70;96.20
42683;DHT22;28293;50.930;3.464;2024-01-27T09:14:48;3.80;96.00
42683;DHT22;28293;50.930;3.464;2024-01-27T09:17:13;3.90;95.80
42683;DHT22;28293;50.930;3.464;2024-01-27T09:19:39;4.10;95.50
42683;DHT22;28293;50.930;3.464;2024-01-27T09:22:04;4.10;95.00
42683;DHT22;28293;50.930;3.464;2024-01-27T09:24:30;4.10;94.50
42683;DHT22;28293;50.930;3.464;2024-01-27T09:26:56;4.10;94.30
42683;DHT22;28293;50.930;3.464;2024-01-27T09:29:21;4.20;94.40
42683;DHT22;28293;50.930;3.464;2024-01-27T09:31:47;4.40;94.10
42683;DHT22;28293;50.930;3.464;2024-01-27T09:34:13;4.50;93.80
42683;DHT22;28293;50.930;3.464;2024-01-27T09:36:38;4.50;93.40
42683;DHT22;28293;50.930;3.464;2024-01-27T09:39:04;4.60;93.00
42683;DHT22;28293;50.930;3.464;2024-01-27T09:41:31;4.70;92.80
42683;DHT22;28293;50.930;3.464;2024-01-27T09:44:01;4.80;92.80
42683;DHT22;28293;50.930;3.464;2024-01-27T09:46:29;5.00;92.60
42683;DHT22;28293;50.930;3.464;2024-01-27T09:48:55;5.20;92.20
42683;DHT22;28293;50.930;3.464;2024-01-27T09:51:21;5.50;91.60
42683;DHT22;28293;50.930;3.464;2024-01-27T09:53:48;5.60;91.00
42683;DHT22;28293;50.930;3.464;2024-01-27T09:56:16;5.80;90.70
42683;DHT22;28293;50.930;3.464;2024-01-27T09:58:44;5.90;90.40
42683;DHT22;28293;50.930;3.464;2024-01-27T10:01:10;6.10;89.90
42683;DHT22;28293;50.930;3.464;2024-01-27T10:03:40;6.10;89.00
42683;DHT22;28293;50.930;3.464;2024-01-27T10:06:10;6.20;88.90
42683;DHT22;28293;50.930;3.464;2024-01-27T10:08:36;6.30;89.20
42683;DHT22;28293;50.930;3.464;2024-01-27T10:11:07;6.30;88.60
42683;DHT22;28293;50.930;3.464;2024-01-27T10:13:34;6.40;88.90
42683;DHT22;28293;50.930;3.464;2024-01-27T10:16:08;6.40;88.60
42683;DHT22;28293;50.930;3.464;2024-01-27T10:18:35;6.50;88.70
42683;DHT22;28293;50.930;3.464;2024-01-27T10:21:18;6.60;88.60
42683;DHT22;28293;50.930;3.464;2024-01-27T10:23:45;6.70;88.20
42683;DHT22;28293;50.930;3.464;2024-01-27T10:26:11;6.70;88.20
42683;DHT22;28293;50.930;3.464;2024-01-27T10:28:37;6.70;87.70
42683;DHT22;28293;50.930;3.464;2024-01-27T10:31:12;6.70;87.90
42683;DHT22;28293;50.930;3.464;2024-01-27T10:33:39;6.70;87.80
42683;DHT22;28293;50.930;3.464;2024-01-27T10:36:05;6.80;87.50
42683;DHT22;28293;50.930;3.464;2024-01-27T10:38:40;6.80;87.40
42683;DHT22;28293;50.930;3.464;2024-01-27T10:41:09;6.90;87.50
42683;DHT22;28293;50.930;3.464;2024-01-27T10:43:38;6.90;86.80
42683;DHT22;28293;50.930;3.464;2024-01-27T10:46:08;7.00;87.30
42683;DHT22;28293;50.930;3.464;2024-01-27T10:48:35;7.20;86.80
42683;DHT22;28293;50.930;3.464;2024-01-27T10:51:08;7.20;86.40
42683;DHT22;28293;50.930;3.464;2024-01-27T10:53:35;7.20;85.90
42683;DHT22;28293;50.930;3.464;2024-01-27T10:56:03;7.40;86.00
42683;DHT22;28293;50.930;3.464;2024-01-27T10:58:35;7.40;85.80
42683;DHT22;28293;50.930;3.464;2024-01-27T11:01:09;7.50;85.10
42683;DHT22;28293;50.930;3.464;2024-01-27T11:03:37;7.50;85.00
42683;DHT22;28293;50.930;3.464;2024-01-27T11:06:05;7.40;85.30
42683;DHT22;28293;50.930;3.464;2024-01-27T11:08:31;7.50;85.40
42683;DHT22;28293;50.930;3.464;2024-01-27T11:10:59;7.60;85.20
42683;DHT22;28293;50.930;3.464;2024-01-27T11:13:25;7.60;85.40
42683;DHT22;28293;50.930;3.464;2024-01-27T11:15:53;7.60;85.00
42683;DHT22;28293;50.930;3.464;2024-01-27T11:18:19;7.60;85.20
42683;DHT22;28293;50.930;3.464;2024-01-27T11:20:45;7.70;85.20
42683;DHT22;28293;50.930;3.464;2024-01-27T11:23:12;7.70;84.90
42683;DHT22;28293;50.930;3.464;2024-01-27T11:25:39;7.80;85.10
42683;DHT22;28293;50.930;3.464;2024-01-27T11:28:15;8.00;84.60
42683;DHT22;28293;50.930;3.464;2024-01-27T11:30:48;8.10;84.10
42683;DHT22;28293;50.930;3.464;2024-01-27T11:33:14;8.10;83.80
42683;DHT22;28293;50.930;3.464;2024-01-27T11:35:40;8.20;83.30
42683;DHT22;28293;50.930;3.464;2024-01-27T11:38:06;8.30;83.70
42683;DHT22;28293;50.930;3.464;2024-01-27T11:40:32;8.60;83.60
42683;DHT22;28293;50.930;3.464;2024-01-27T11:43:00;8.70;82.80
42683;DHT22;28293;50.930;3.464;2024-01-27T11:45:26;8.90;82.20
42683;DHT22;28293;50.930;3.464;2024-01-27T11:47:56;8.90;81.50
42683;DHT22;28293;50.930;3.464;2024-01-27T11:50:22;9.10;81.70
42683;DHT22;28293;50.930;3.464;2024-01-27T11:52:48;9.20;81.40
42683;DHT22;28293;50.930;3.464;2024-01-27T11:55:14;9.30;81.60
42683;DHT22;28293;50.930;3.464;2024-01-27T11:57:45;9.30;80.50
42683;DHT22;28293;50.930;3.464;2024-01-27T12:00:11;9.40;80.40
42683;DHT22;28293;50.930;3.464;2024-01-27T12:02:39;9.50;80.00
42683;DHT22;28293;50.930;3.464;2024-01-27T12:05:06;9.50;80.00
42683;DHT22;28293;50.930;3.464;2024-01-27T12:07:31;9.60;79.60
42683;DHT22;28293;50.930;3.464;2024-01-27T12:09:58;9.50;79.30
42683;DHT22;28293;50.930;3.464;2024-01-27T12:12:24;9.60;79.60
42683;DHT22;28293;50.930;3.464;2024-01-27T12:14:51;9.60;79.00
42683;DHT22;28293;50.930;3.464;2024-01-27T12:17:17;9.60;79.10
42683;DHT22;28293;50.930;3.464;2024-01-27T12:19:48;9.60;78.70
42683;DHT22;28293;50.930;3.464;2024-01-27T12:22:27;9.70;79.20
42683;DHT22;28293;50.930;3.464;2024-01-27T12:25:11;9.60;78.70
42683;DHT22;28293;50.930;3.464;2024-01-27T12:27:38;9.60;79.40
42683;DHT22;28293;50.930;3.464;2024-01-27T12:30:05;9.60;79.20
42683;DHT22;28293;50.930;3.464;2024-01-27T12:32:31;9.60;78.60
42683;DHT22;28293;50.930;3.464;2024-01-27T12:34:57;9.60;79.30
42683;DHT22;28293;50.930;3.464;2024-01-27T12:37:25;9.60;79.00
42683;DHT22;28293;50.930;3.464;2024-01-27T12:39:51;9.60;78.50
42683;DHT22;28293;50.930;3.464;2024-01-27T12:42:17;9.50;78.70
42683;DHT22;28293;50.930;3.464;2024-01-27T12:44:43;9.40;78.80
42683;DHT22;28293;50.930;3.464;2024-01-27T12:47:12;9.30;78.50
42683;DHT22;28293;50.930;3.464;2024-01-27T12:49:39;9.20;78.70
42683;DHT22;28293;50.930;3.464;2024-01-27T12:52:06;9.10;79.10
42683;DHT22;28293;50.930;3.464;2024-01-27T12:54:32;9.30;78.90
42683;DHT22;28293;50.930;3.464;2024-01-27T12:57:00;9.30;79.30
42683;DHT22;28293;50.930;3.464;2024-01-27T12:59:27;9.40;78.50
42683;DHT22;28293;50.930;3.464;2024-01-27T13:01:54;9.30;78.20
42683;DHT22;28293;50.930;3.464;2024-01-27T13:04:20;9.50;77.80
42683;DHT22;28293;50.930;3.464;2024-01-27T13:06:46;9.60;77.60
42683;DHT22;28293;50.930;3.464;2024-01-27T13:09:12;9.70;77.50
42683;DHT22;28293;50.930;3.464;2024-01-27T13:11:39;9.80;78.00
42683;DHT22;28293;50.930;3.464;2024-01-27T13:14:05;9.80;77.00
42683;DHT22;28293;50.930;3.464;2024-01-27T13:16:32;9.70;77.00
42683;DHT22;28293;50.930;3.464;2024-01-27T13:18:58;9.60;76.70
42683;DHT22;28293;50.930;3.464;2024-01-27T13:21:24;9.50;76.30
42683;DHT22;28293;50.930;3.464;2024-01-27T13:23:49;9.40;76.50
42683;DHT22;28293;50.930;3.464;2024-01-27T13:26:18;9.40;77.10
42683;DHT22;28293;50.930;3.464;2024-01-27T13:28:46;9.30;77.50
42683;DHT22;28293;50.930;3.464;2024-01-27T13:31:14;9.30;77.90
42683;DHT22;28293;50.930;3.464;2024-01-27T13:33:39;9.30;77.20
42683;DHT22;28293;50.930;3.464;2024-01-27T13:36:05;9.20;77.00
42683;DHT22;28293;50.930;3.464;2024-01-27T13:38:31;9.30;77.80
42683;DHT22;28293;50.930;3.464;2024-01-27T13:40:57;9.10;77.20
42683;DHT22;28293;50.930;3.464;2024-01-27T13:43:22;9.10;77.10
42683;DHT22;28293;50.930;3.464;2024-01-27T13:45:48;9.10;77.10
42683;DHT22;28293;50.930;3.464;2024-01-27T13:48:14;9.10;77.30
42683;DHT22;28293;50.930;3.464;2024-01-27T13:50:41;9.10;77.10
42683;DHT22;28293;50.930;3.464;2024-01-27T13:53:06;8.90;76.80
42683;DHT22;28293;50.930;3.464;2024-01-27T13:55:32;8.90;77.00
42683;DHT22;28293;50.930;3.464;2024-01-27T13:57:58;8.90;77.50
42683;DHT22;28293;50.930;3.464;2024-01-27T14:00:23;8.90;77.60
42683;DHT22;28293;50.930;3.464;2024-01-27T14:02:49;8.80;77.70
42683;DHT22;28293;50.930;3.464;2024-01-27T14:05:15;8.70;78.10
42683;DHT22;28293;50.930;3.464;2024-01-27T14:07:40;8.70;78.50
42683;DHT22;28293;50.930;3.464;2024-01-27T14:10:06;8.70;78.70
42683;DHT22;28293;50.930;3.464;2024-01-27T14:12:32;8.70;78.80
42683;DHT22;28293;50.930;3.464;2024-01-27T14:15:05;8.70;78.90
42683;DHT22;28293;50.930;3.464;2024-01-27T14:17:35;8.70;79.50
42683;DHT22;28293;50.930;3.464;2024-01-27T14:20:02;8.60;79.70
42683;DHT22;28293;50.930;3.464;2024-01-27T14:22:29;8.70;79.70
42683;DHT22;28293;50.930;3.464;2024-01-27T14:24:55;8.60;79.60
42683;DHT22;28293;50.930;3.464;2024-01-27T14:27:21;8.60;80.00
42683;DHT22;28293;50.930;3.464;2024-01-27T14:29:52;8.60;79.80
42683;DHT22;28293;50.930;3.464;2024-01-27T14:32:18;8.70;79.80
42683;DHT22;28293;50.930;3.464;2024-01-27T14:34:44;8.60;80.20
42683;DHT22;28293;50.930;3.464;2024-01-27T14:37:10;8.60;79.90
42683;DHT22;28293;50.930;3.464;2024-01-27T14:39:36;8.60;80.00
42683;DHT22;28293;50.930;3.464;2024-01-27T14:42:02;8.60;79.90
42683;DHT22;28293;50.930;3.464;2024-01-27T14:44:29;8.60;80.20
42683;DHT22;28293;50.930;3.464;2024-01-27T14:46:55;8.50;80.50
42683;DHT22;28293;50.930;3.464;2024-01-27T14:49:21;8.50;80.30
42683;DHT22;28293;50.930;3.464;2024-01-27T14:51:48;8.50;80.50
42683;DHT22;28293;50.930;3.464;2024-01-27T14:54:14;8.50;80.70
42683;DHT22;28293;50.930;3.464;2024-01-27T14:56:39;8.40;80.90
42683;DHT22;28293;50.930;3.464;2024-01-27T14:59:05;8.40;81.00
42683;DHT22;28293;50.930;3.464;2024-01-27T15:01:33;8.30;81.00
42683;DHT22;28293;50.930;3.464;2024-01-27T15:03:58;8.40;80.80
42683;DHT22;28293;50.930;3.464;2024-01-27T15:06:26;8.40;80.70
42683;DHT22;28293;50.930;3.464;2024-01-27T15:08:52;8.40;80.80
42683;DHT22;28293;50.930;3.464;2024-01-27T15:11:18;8.30;81.00
42683;DHT22;28293;50.930;3.464;2024-01-27T15:13:44;8.30;81.20
42683;DHT22;28293;50.930;3.464;2024-01-27T15:16:09;8.30;81.00
42683;DHT22;28293;50.930;3.464;2024-01-27T15:18:35;8.20;81.30
42683;DHT22;28293;50.930;3.464;2024-01-27T15:21:05;8.20;81.30
42683;DHT22;28293;50.930;3.464;2024-01-27T15:23:31;8.20;81.30
42683;DHT22;28293;50.930;3.464;2024-01-27T15:25:57;8.10;81.20
42683;DHT22;28293;50.930;3.464;2024-01-27T15:28:23;8.10;81.20
42683;DHT22;28293;50.930;3.464;2024-01-27T15:30:48;8.10;81.30
42683;DHT22;28293;50.930;3.464;2024-01-27T15:33:14;8.10;81.30
42683;DHT22;28293;50.930;3.464;2024-01-27T15:35:40;8.10;81.30
42683;DHT22;28293;50.930;3.464;2024-01-27T15:38:06;8.10;81.50
42683;DHT22;28293;50.930;3.464;2024-01-27T15:40:32;8.00;81.40